Terminal Aerodrome Forecast
Issued by NWS

Home | Current Version | Previous Version | Text Only | Print | Product List | Glossary On
Versions: 1 2 3 4 5 6 7 8 9 10 11 12 13 14
464
FTUS45 KFGZ 211723
TAFPRC
TAF
KPRC 211723Z 2118/2218 VRB06KT P6SM SCT080
     FM212100 25008KT P6SM VCTS SCT080CB
     FM220100 20006KT P6SM SCT120=

USA.gov is the U.S. government's official web portal to all federal, state and local government web resources and services.